East Townsend, Ohio
Current Conditions -  °F | °C
As of 10:53 AM on Friday 19 Dec 2014 (Local Time) from KLPR Reporting Station
Overcast Overcast  
Wind Chill: 29°   Ceiling: 2100
Heat Index: 29°   Visibility: 10mi
Dew Point: 26°   Wind: 3mph
Humidity: 89%   Direction: 300°WNW
Pressure: 30.26"   Gusts: NA
Location:  41.2571°N, 82.4875°W
Report Text: KLPR 191553Z AUTO 30003KT 10SM OVC021 M02/M03 A3026 RMK AO2 SLP255 T10171033 TSNO
Loading
Personal Weather Stations






























Interactive Weather Map New forecast layout! Learn more

10-Day Weather Forecast

Advertisements
Track Severe Weather on mobile